ADDS METAR Data INFO
IDs: Format: Raw Decoded Include TAF

Data at: 1746 UTC 21 Oct 2017

KMOR 211735Z AUTO 00000KT 10SM CLR 22/10 A3029 RMK A01
KMOR 211715Z AUTO 00000KT 10SM CLR 22/10 A3030 RMK A01
KMOR 211655Z AUTO 09004KT 10SM CLR 21/09 A3031 RMK A01
KMOR 211635Z AUTO VRB03KT 10SM CLR 21/09 A3031 RMK A01
KMOR 211615Z AUTO 00000KT 10SM CLR 20/10 A3031 RMK A01
KMOR 211555Z AUTO 00000KT 10SM CLR 19/10 A3032 RMK A01
KMOR 211535Z AUTO VRB03KT 10SM CLR 19/10 A3032 RMK A01
KMOR 211515Z AUTO 00000KT 10SM CLR 18/10 A3032 RMK A01
KMOR 211455Z AUTO VRB03KT 10SM CLR 18/10 A3032 RMK A01
KMOR 211435Z AUTO 07004KT 10SM CLR 17/09 A3032 RMK A01
KMOR 211415Z AUTO 07004KT 10SM CLR 16/10 A3032 RMK A01
KMOR 211355Z AUTO 10004KT 10SM CLR 15/10 A3032 RMK A01
KMOR 211335Z AUTO 09004KT 10SM CLR 14/10 A3032 RMK A01
KMOR 211315Z AUTO 00000KT 10SM CLR 12/09 A3032 RMK A01
KMOR 211255Z AUTO 00000KT 10SM CLR 12/09 A3031 RMK A01
KMOR 211235Z AUTO 00000KT 10SM CLR 11/09 A3030 RMK A01
KMOR 211215Z AUTO 00000KT 10SM CLR 10/08 A3029 RMK A01
KMOR 211155Z AUTO 00000KT 10SM CLR 10/08 A3028 RMK A01
KMOR 211135Z AUTO 00000KT 10SM CLR 10/08 A3028 RMK A01
KMOR 211115Z AUTO 00000KT 10SM CLR 10/08 A3027 RMK A01
KMOR 211055Z AUTO 00000KT 10SM CLR 10/08 A3027 RMK A01
KMOR 211035Z AUTO 00000KT 10SM CLR 10/08 A3026 RMK A01
KMOR 211015Z AUTO 00000KT 10SM CLR 10/09 A3026 RMK A01
KMOR 210955Z AUTO 00000KT 10SM CLR 10/09 A3025 RMK A01
KMOR 210935Z AUTO 00000KT 10SM CLR 10/08 A3025 RMK A01
KMOR 210915Z AUTO 00000KT 10SM CLR 10/08 A3025 RMK A01
KMOR 210855Z AUTO 00000KT 10SM CLR 10/08 A3024 RMK A01
KMOR 210835Z AUTO 00000KT 10SM CLR 10/08 A3024 RMK A01
KMOR 210815Z AUTO 00000KT 10SM CLR 10/08 A3023 RMK A01
KMOR 210755Z AUTO 00000KT 10SM CLR 10/08 A3024 RMK A01
KMOR 210735Z AUTO 05003KT 10SM CLR 10/08 A3023 RMK A01
KMOR 210715Z AUTO 00000KT 10SM CLR 10/08 A3023 RMK A01
KMOR 210655Z AUTO 00000KT 10SM CLR 11/08 A3023 RMK A01
KMOR 210635Z AUTO 00000KT 10SM CLR 12/08 A3023 RMK A01
KMOR 210615Z AUTO 00000KT 10SM CLR 12/08 A3023 RMK A01
KMOR 210555Z AUTO 00000KT 10SM CLR 12/08 A3023 RMK A01
KMOR 210535Z AUTO 00000KT 10SM CLR 12/08 A3023 RMK A01
KMOR 210515Z AUTO 00000KT 10SM CLR 11/08 A3022 RMK A01
KMOR 210455Z AUTO 00000KT 10SM CLR 12/08 A3023 RMK A01
KMOR 210435Z AUTO 00000KT 10SM CLR 13/08 A3023 RMK A01
KMOR 210415Z AUTO 00000KT 10SM CLR 13/08 A3023 RMK A01
KMOR 210355Z AUTO 02003KT 10SM CLR 13/08 A3023 RMK A01
KMOR 210335Z AUTO 00000KT 10SM CLR 13/08 A3024 RMK A01
KMOR 210315Z AUTO 05003KT 10SM CLR 13/08 A3024 RMK A01
KMOR 210255Z AUTO 00000KT 10SM CLR 14/08 A3023 RMK A01
KMOR 210235Z AUTO 00000KT 10SM CLR 14/08 A3023 RMK A01
KMOR 210215Z AUTO 00000KT 10SM CLR 14/09 A3023 RMK A01
KMOR 210155Z AUTO 00000KT 10SM CLR 15/09 A3023 RMK A01
KMOR 210135Z AUTO 00000KT 10SM CLR 15/09 A3022 RMK A01
KMOR 210115Z AUTO 00000KT 10SM CLR 15/09 A3022 RMK A01
KMOR 210055Z AUTO 00000KT 10SM CLR 16/09 A3022 RMK A01
KMOR 210035Z AUTO 00000KT 10SM CLR 16/09 A3022 RMK A01
KMOR 210015Z AUTO 00000KT 10SM CLR 16/08 A3022 RMK A01
KMOR 202355Z AUTO 00000KT 10SM CLR 18/08 A3022 RMK A01
KMOR 202335Z AUTO 00000KT 10SM CLR 19/07 A3021 RMK A01
KMOR 202315Z AUTO 00000KT 10SM CLR 20/07 A3021 RMK A01
KMOR 202255Z AUTO 05003KT 10SM CLR 21/06 A3020 RMK A01
KMOR 202235Z AUTO 05003KT 10SM CLR 22/05 A3020 RMK A01
KMOR 202215Z AUTO 00000KT 10SM CLR 23/05 A3020 RMK A01
KMOR 202155Z AUTO 05004KT 10SM CLR 24/03 A3021 RMK A01
KMOR 202135Z AUTO 03004KT 10SM CLR 24/05 A3021 RMK A01
KMOR 202115Z AUTO 01005KT 10SM CLR 24/04 A3021 RMK A01
KMOR 202055Z AUTO 36007KT 10SM CLR 24/07 A3021 RMK A01
KMOR 202035Z AUTO 01005KT 10SM CLR 24/08 A3022 RMK A01
KMOR 202015Z AUTO 02005KT 10SM CLR 24/10 A3023 RMK A01
KMOR 201955Z AUTO 00000KT 10SM CLR 24/10 A3023 RMK A01
KMOR 201935Z AUTO 00000KT 10SM CLR 24/06 A3023 RMK A01
KMOR 201915Z AUTO VRB03KT 10SM CLR 24/07 A3024 RMK A01
KMOR 201855Z AUTO 00000KT 10SM CLR 23/07 A3024 RMK A01
KMOR 201835Z AUTO 00000KT 10SM CLR 23/07 A3025 RMK A01
KMOR 201815Z AUTO 05003KT 10SM CLR 23/06 A3026 RMK A01
KMOR 201755Z AUTO 00000KT 10SM CLR 22/08 A3027 RMK A01
KMOR 201735Z AUTO 00000KT 10SM CLR 22/08 A3028 RMK A01
KMOR 201715Z AUTO 05004KT 10SM CLR 21/09 A3029 RMK A01
KMOR 201655Z AUTO 00000KT 10SM CLR 21/09 A3030 RMK A01
KMOR 201635Z AUTO 00000KT 10SM CLR 20/09 A3032 RMK A01
KMOR 201615Z AUTO 00000KT 10SM CLR 19/09 A3032 RMK A01
KMOR 201555Z AUTO 00000KT 10SM CLR 18/10 A3033 RMK A01
KMOR 201535Z AUTO 00000KT 10SM CLR 18/09 A3034 RMK A01
KMOR 201515Z AUTO VRB04KT 10SM CLR 17/09 A3034 RMK A01
KMOR 201455Z AUTO 00000KT 10SM CLR 16/09 A3035 RMK A01
KMOR 201435Z AUTO 00000KT 10SM CLR 15/09 A3035 RMK A01
KMOR 201415Z AUTO 00000KT 10SM CLR 14/09 A3035 RMK A01
KMOR 201355Z AUTO 07003KT 10SM CLR 13/08 A3035 RMK A01
KMOR 201335Z AUTO 08003KT 10SM CLR 12/08 A3035 RMK A01
KMOR 201315Z AUTO 06004KT 10SM CLR 11/08 A3034 RMK A01
KMOR 201255Z AUTO 00000KT 10SM CLR 10/07 A3034 RMK A01
KMOR 201235Z AUTO 00000KT 10SM CLR 08/07 A3033 RMK A01
KMOR 201215Z AUTO 00000KT 10SM CLR 08/07 A3033 RMK A01
KMOR 201155Z AUTO 00000KT 10SM CLR 07/06 A3033 RMK A01
KMOR 201135Z AUTO 00000KT 10SM CLR 07/06 A3032 RMK A01
KMOR 201115Z AUTO 00000KT 10SM CLR 07/07 A3032 RMK A01
KMOR 201055Z AUTO 00000KT 10SM CLR 08/07 A3031 RMK A01
KMOR 201035Z AUTO 00000KT 10SM CLR 08/07 A3031 RMK A01
KMOR 201015Z AUTO 00000KT 10SM CLR 08/07 A3030 RMK A01
KMOR 200955Z AUTO 00000KT 10SM CLR 08/07 A3029 RMK A01
KMOR 200935Z AUTO 00000KT 10SM CLR 08/07 A3029 RMK A01
KMOR 200915Z AUTO 00000KT 10SM CLR 08/07 A3028 RMK A01
KMOR 200855Z AUTO 00000KT 10SM CLR 08/07 A3028 RMK A01
KMOR 200835Z AUTO 00000KT 10SM CLR 08/08 A3028 RMK A01
KMOR 200815Z AUTO 05003KT 10SM CLR 09/07 A3028 RMK A01
KMOR 200755Z AUTO 00000KT 10SM CLR 09/08 A3028 RMK A01
KMOR 200735Z AUTO 00000KT 10SM CLR 09/07 A3028 RMK A01
KMOR 200715Z AUTO 00000KT 10SM CLR 09/08 A3028 RMK A01
KMOR 200655Z AUTO 00000KT 10SM CLR 09/07 A3028 RMK A01
KMOR 200635Z AUTO 00000KT 10SM CLR 09/07 A3028 RMK A01
KMOR 200615Z AUTO 00000KT 10SM CLR 09/07 A3028 RMK A01
KMOR 200555Z AUTO 00000KT 10SM CLR 09/07 A3028 RMK A01